createdAt,value
2023-01-15T00:01:48.822Z,7.40
2023-01-15T00:04:15.396Z,7.51
2023-01-15T00:06:42.285Z,7.47
2023-01-15T00:09:11.873Z,7.46
2023-01-15T00:11:38.303Z,7.48
2023-01-15T00:14:04.868Z,7.62
2023-01-15T00:16:31.376Z,7.54
2023-01-15T00:18:59.324Z,7.55
2023-01-15T00:21:27.171Z,7.64
2023-01-15T00:24:13.021Z,7.59
2023-01-15T00:26:58.941Z,7.75
2023-01-15T00:29:26.232Z,7.66
2023-01-15T00:31:59.719Z,7.60
2023-01-15T00:34:27.017Z,7.62
2023-01-15T00:36:53.817Z,7.76
2023-01-15T00:39:20.584Z,7.66
2023-01-15T00:41:47.475Z,7.69
2023-01-15T00:44:14.107Z,7.70
2023-01-15T00:46:40.798Z,7.71
2023-01-15T00:49:07.663Z,7.76
2023-01-15T00:51:34.199Z,7.69
2023-01-15T00:54:00.990Z,7.75
2023-01-15T00:56:27.697Z,7.82
2023-01-15T00:58:54.493Z,7.78
2023-01-15T01:01:21.367Z,7.84
2023-01-15T01:03:49.087Z,7.77
2023-01-15T01:06:16.886Z,7.82
2023-01-15T01:08:46.160Z,7.83
2023-01-15T01:11:13.925Z,7.82
2023-01-15T01:13:40.572Z,7.87
2023-01-15T01:16:21.899Z,7.80
2023-01-15T01:18:48.384Z,7.92
2023-01-15T01:21:14.853Z,7.85
2023-01-15T01:23:41.357Z,7.99
2023-01-15T01:26:07.869Z,7.98
2023-01-15T01:28:34.317Z,7.98
2023-01-15T01:31:00.862Z,7.92
2023-01-15T01:33:27.359Z,8.00
2023-01-15T01:35:53.809Z,8.03
2023-01-15T01:38:20.322Z,8.05
2023-01-15T01:40:46.791Z,8.01
2023-01-15T01:43:20.697Z,8.05
2023-01-15T01:45:47.287Z,8.13
2023-01-15T01:48:14.413Z,8.09
2023-01-15T01:50:41.337Z,8.06
2023-01-15T01:53:11.108Z,7.97
2023-01-15T01:55:37.778Z,7.90
2023-01-15T01:58:05.405Z,7.91
2023-01-15T02:00:33.291Z,7.96
2023-01-15T02:03:00.959Z,7.94
2023-01-15T02:05:27.455Z,7.90
2023-01-15T02:07:54.012Z,7.82
2023-01-15T02:10:20.656Z,7.80
2023-01-15T02:12:52.426Z,7.78
2023-01-15T02:15:23.386Z,7.79
2023-01-15T02:17:56.187Z,7.77
2023-01-15T02:20:41.207Z,7.73
2023-01-15T02:23:15.785Z,7.72
2023-01-15T02:47:04.266Z,7.63
2023-01-15T02:49:56.088Z,7.67
2023-01-15T02:52:48.683Z,7.62
2023-01-15T02:55:36.786Z,7.66
2023-01-15T02:58:06.427Z,7.66
2023-01-15T03:04:24.884Z,7.66
2023-01-15T03:07:00.444Z,7.64
2023-01-15T03:09:28.146Z,7.58
2023-01-15T03:12:00.718Z,7.63
2023-01-15T03:14:32.596Z,7.62
2023-01-15T03:17:02.080Z,7.59
2023-01-15T03:19:28.578Z,7.58
2023-01-15T03:22:16.386Z,7.56
2023-01-15T03:24:48.861Z,7.64
2023-01-15T03:27:15.681Z,7.79
2023-01-15T03:29:44.951Z,7.75
2023-01-15T03:32:11.627Z,7.72
2023-01-15T03:34:41.840Z,7.78
2023-01-15T03:37:08.685Z,7.69
2023-01-15T03:39:35.383Z,7.69
2023-01-15T03:42:20.966Z,7.69
2023-01-15T03:44:53.444Z,7.68
2023-01-15T03:47:23.064Z,7.77
2023-01-15T03:49:55.761Z,7.74
2023-01-15T03:52:44.777Z,7.67
2023-01-15T03:55:32.514Z,7.74
2023-01-15T03:57:58.997Z,7.73
2023-01-15T04:00:27.046Z,7.78
2023-01-15T04:02:57.642Z,7.82
2023-01-15T04:05:25.363Z,7.76
2023-01-15T04:07:53.155Z,7.89
2023-01-15T04:10:19.701Z,7.96
2023-01-15T04:12:46.316Z,7.70
2023-01-15T04:15:12.850Z,7.50
2023-01-15T04:17:39.589Z,7.22
2023-01-15T04:20:06.509Z,7.15
2023-01-15T04:22:33.233Z,7.09
2023-01-15T04:24:59.720Z,6.99
2023-01-15T04:27:27.350Z,6.68
2023-01-15T04:29:54.059Z,6.43
2023-01-15T04:32:20.575Z,6.30
2023-01-15T04:34:47.215Z,5.98
2023-01-15T04:37:14.634Z,5.79
2023-01-15T04:39:41.107Z,5.64
2023-01-15T04:42:28.623Z,5.45
2023-01-15T04:44:55.067Z,5.26
2023-01-15T04:47:21.551Z,5.17
2023-01-15T04:49:48.171Z,5.05
2023-01-15T04:52:14.951Z,5.09
2023-01-15T04:54:41.623Z,5.08
2023-01-15T04:57:08.406Z,5.02
2023-01-15T04:59:34.934Z,4.93
2023-01-15T05:02:05.750Z,4.90
2023-01-15T05:04:33.482Z,4.92
2023-01-15T05:07:01.098Z,4.94
2023-01-15T05:09:27.674Z,4.84
2023-01-15T05:11:54.173Z,4.90
2023-01-15T05:14:20.630Z,4.93
2023-01-15T05:16:47.185Z,4.94
2023-01-15T05:19:13.981Z,4.88
2023-01-15T05:21:41.892Z,4.90
2023-01-15T05:24:09.300Z,4.82
2023-01-15T05:26:36.056Z,4.82
2023-01-15T05:29:03.217Z,4.87
2023-01-15T05:31:30.928Z,4.87
2023-01-15T05:33:57.979Z,4.79
2023-01-15T05:36:26.293Z,4.78
2023-01-15T05:38:53.715Z,4.85
2023-01-15T05:41:39.409Z,4.88
2023-01-15T05:44:07.510Z,4.80
2023-01-15T05:46:34.973Z,4.80
2023-01-15T05:49:02.494Z,4.83
2023-01-15T05:51:29.522Z,4.72
2023-01-15T05:53:59.292Z,4.75
2023-01-15T05:56:26.006Z,4.80
2023-01-15T05:58:52.999Z,4.74
2023-01-15T06:01:19.618Z,4.75
2023-01-15T06:03:47.254Z,4.75
2023-01-15T06:06:17.955Z,4.74
2023-01-15T06:08:44.889Z,4.62
2023-01-15T06:11:11.846Z,4.64
2023-01-15T06:13:39.624Z,4.50
2023-01-15T06:16:06.924Z,4.52
2023-01-15T06:18:35.440Z,4.46
2023-01-15T06:21:09.125Z,4.43
2023-01-15T06:23:38.876Z,4.42
2023-01-15T06:26:06.856Z,4.45
2023-01-15T06:28:33.693Z,4.45
2023-01-15T06:31:00.339Z,4.45
2023-01-15T06:33:26.950Z,4.47
2023-01-15T06:35:53.406Z,4.42
2023-01-15T06:38:19.929Z,4.41
2023-01-15T06:40:46.639Z,4.40
2023-01-15T06:43:31.727Z,4.43
2023-01-15T06:46:16.850Z,4.45
2023-01-15T06:48:43.500Z,4.45
2023-01-15T06:51:10.132Z,4.35
2023-01-15T06:53:36.601Z,4.40
2023-01-15T06:56:03.059Z,4.31
2023-01-15T06:58:29.697Z,4.43
2023-01-15T07:00:56.633Z,4.32
2023-01-15T07:03:23.656Z,4.29
2023-01-15T07:05:50.269Z,4.43
2023-01-15T07:08:16.815Z,4.38
2023-01-15T07:10:43.485Z,4.47
2023-01-15T07:13:10.577Z,4.46
2023-01-15T07:15:40.144Z,4.33
2023-01-15T07:18:06.658Z,4.36
2023-01-15T07:20:33.381Z,4.33
2023-01-15T07:23:00.009Z,4.33
2023-01-15T07:25:26.513Z,4.34
2023-01-15T07:27:53.039Z,4.33
2023-01-15T07:30:19.649Z,4.28
2023-01-15T07:32:46.180Z,4.28
2023-01-15T07:35:12.602Z,4.28
2023-01-15T07:37:40.134Z,4.24
2023-01-15T07:40:06.741Z,4.30
2023-01-15T07:42:51.646Z,4.27
2023-01-15T07:45:36.620Z,4.28
2023-01-15T07:48:21.466Z,4.27
2023-01-15T07:50:47.920Z,4.23
2023-01-15T07:53:14.376Z,4.30
2023-01-15T07:55:40.876Z,4.37
2023-01-15T07:58:07.336Z,4.36
2023-01-15T08:00:33.893Z,4.30
2023-01-15T08:03:00.314Z,4.29
2023-01-15T08:05:26.745Z,4.33
2023-01-15T08:07:53.266Z,4.41
2023-01-15T08:10:20.032Z,4.36
2023-01-15T08:13:07.660Z,4.36
2023-01-15T08:15:37.946Z,4.42
2023-01-15T08:18:05.208Z,4.43
2023-01-15T08:20:31.718Z,4.47
2023-01-15T08:23:00.643Z,4.51
2023-01-15T08:25:27.144Z,4.42
2023-01-15T08:27:53.897Z,4.34
2023-01-15T08:30:23.747Z,4.41
2023-01-15T08:32:50.270Z,4.42
2023-01-15T08:35:16.893Z,4.43
2023-01-15T08:37:43.421Z,4.50
2023-01-15T08:40:10.813Z,4.42
2023-01-15T08:42:37.344Z,4.46
2023-01-15T08:45:03.935Z,4.56
2023-01-15T08:47:32.485Z,4.56
2023-01-15T08:49:59.135Z,4.54
2023-01-15T08:52:25.591Z,4.46
2023-01-15T08:54:52.081Z,4.48
2023-01-15T08:57:18.518Z,4.68
2023-01-15T08:59:45.069Z,4.78
2023-01-15T09:02:15.447Z,4.80
2023-01-15T09:04:42.010Z,4.67
2023-01-15T09:07:08.693Z,4.70
2023-01-15T09:09:35.231Z,4.73
2023-01-15T09:12:01.887Z,4.82
2023-01-15T09:14:56.540Z,4.78
2023-01-15T09:17:14.857Z,4.78
2023-01-15T09:19:41.396Z,4.93
2023-01-15T09:22:07.872Z,4.95
2023-01-15T09:24:34.323Z,4.92
2023-01-15T09:27:00.791Z,4.90
2023-01-15T09:29:27.219Z,4.99
2023-01-15T09:31:53.769Z,4.97
2023-01-15T09:34:20.293Z,4.90
2023-01-15T09:36:46.823Z,5.10
2023-01-15T09:39:13.291Z,5.00
2023-01-15T09:42:09.053Z,4.94
2023-01-15T09:44:38.640Z,5.02
2023-01-15T09:47:08.603Z,5.19
2023-01-15T09:49:49.267Z,5.29
2023-01-15T09:52:25.704Z,5.22
2023-01-15T09:55:07.412Z,5.23
2023-01-15T09:57:34.461Z,5.26
2023-01-15T10:00:03.991Z,5.29
2023-01-15T10:02:49.430Z,5.28
2023-01-15T10:05:18.566Z,5.45
2023-01-15T10:07:51.132Z,5.40
2023-01-15T10:10:20.066Z,5.39
2023-01-15T10:12:48.288Z,5.36
2023-01-15T10:15:27.875Z,5.39
2023-01-15T10:17:57.092Z,5.56
2023-01-15T10:20:23.523Z,5.64
2023-01-15T10:23:08.822Z,5.74
2023-01-15T10:25:42.539Z,5.61
2023-01-15T10:28:18.099Z,5.80
2023-01-15T10:30:53.206Z,5.71
2023-01-15T10:33:36.276Z,5.88
2023-01-15T10:36:07.299Z,5.86
2023-01-15T10:38:44.892Z,5.89
2023-01-15T10:41:17.435Z,5.95
2023-01-15T10:43:49.970Z,5.90
2023-01-15T10:46:18.120Z,6.05
2023-01-15T10:48:47.353Z,6.09
2023-01-15T10:51:34.073Z,6.10
2023-01-15T10:54:03.577Z,6.20
2023-01-15T10:56:48.724Z,6.10
2023-01-15T10:59:22.348Z,6.18
2023-01-15T11:01:51.615Z,6.41
2023-01-15T11:04:18.100Z,6.46
2023-01-15T11:09:39.089Z,6.56
2023-01-15T11:12:08.681Z,6.48
2023-01-15T11:14:55.389Z,6.53
2023-01-15T11:17:41.886Z,6.37
2023-01-15T11:20:16.601Z,6.37
2023-01-15T11:22:44.860Z,6.46
2023-01-15T11:25:11.663Z,6.33
2023-01-15T11:27:39.456Z,6.22
2023-01-15T11:30:24.860Z,6.25
2023-01-15T11:32:54.935Z,6.27
2023-01-15T11:35:23.064Z,6.24
2023-01-15T11:37:49.717Z,6.31
2023-01-15T11:40:20.567Z,6.34
2023-01-15T11:43:06.479Z,6.30
2023-01-15T11:45:51.537Z,6.28
2023-01-15T11:48:40.919Z,6.33
2023-01-15T11:51:08.837Z,6.22
2023-01-15T11:53:44.455Z,6.26
2023-01-15T11:56:13.615Z,6.24
2023-01-15T11:58:46.621Z,6.33
2023-01-15T12:01:17.262Z,6.49
2023-01-15T12:03:44.179Z,6.27
2023-01-15T12:06:13.474Z,6.47
2023-01-15T12:10:46.490Z,6.42
2023-01-15T12:21:00.284Z,6.52
2023-01-15T12:22:47.765Z,6.60
2023-01-15T12:25:20.453Z,6.45
2023-01-15T12:28:00.437Z,6.23
2023-01-15T12:30:56.562Z,6.49
2023-01-15T12:33:52.184Z,6.55
2023-01-15T12:36:21.689Z,6.67
2023-01-15T12:39:01.748Z,6.68
2023-01-15T12:41:51.927Z,6.74
2023-01-15T12:44:41.063Z,7.04
2023-01-15T12:47:10.689Z,6.59
2023-01-15T12:49:42.168Z,6.45
2023-01-15T12:52:12.013Z,6.36
2023-01-15T12:54:41.795Z,6.52
2023-01-15T12:57:37.618Z,6.38
2023-01-15T13:00:12.473Z,6.46
2023-01-15T13:02:47.824Z,6.59
2023-01-15T13:05:22.468Z,6.39
2023-01-15T13:08:09.257Z,6.50
2023-01-15T13:10:36.667Z,6.58
2023-01-15T13:13:16.912Z,6.71
2023-01-15T13:16:03.694Z,6.63
2023-01-15T13:18:32.952Z,6.96
2023-01-15T13:21:02.555Z,7.03
2023-01-15T13:23:32.392Z,7.00
2023-01-15T13:26:12.177Z,6.63
2023-01-15T13:28:39.454Z,6.47
2023-01-15T13:31:12.704Z,6.42
2023-01-15T13:33:39.690Z,6.24
2023-01-15T13:36:11.999Z,6.47
2023-01-15T13:38:43.643Z,6.11
2023-01-15T13:41:10.634Z,5.99
2023-01-15T13:43:40.565Z,5.95
2023-01-15T13:46:19.614Z,5.98
2023-01-15T13:48:48.202Z,5.83
2023-01-15T13:51:32.801Z,5.93
2023-01-15T13:54:01.233Z,5.81
2023-01-15T13:56:29.880Z,6.01
2023-01-15T13:58:58.533Z,6.07
2023-01-15T14:01:26.756Z,6.26
2023-01-15T14:04:07.086Z,6.19
2023-01-15T14:06:49.885Z,6.25
2023-01-15T14:09:22.416Z,6.10
2023-01-15T14:11:49.055Z,6.28
2023-01-15T14:14:27.437Z,6.01
2023-01-15T14:16:54.820Z,5.94
2023-01-15T14:19:34.845Z,5.95
2023-01-15T14:22:14.365Z,5.88
2023-01-15T14:24:51.512Z,5.74
2023-01-15T14:27:36.791Z,5.70
2023-01-15T14:30:06.346Z,5.73
2023-01-15T14:32:46.013Z,5.62
2023-01-15T14:35:21.856Z,5.71
2023-01-15T14:37:52.634Z,5.65
2023-01-15T14:40:23.762Z,5.54
2023-01-15T14:43:01.460Z,5.56
2023-01-15T14:45:37.349Z,5.50
2023-01-15T14:48:05.363Z,5.49
2023-01-15T14:50:38.830Z,5.49
2023-01-15T14:53:14.357Z,5.53
2023-01-15T14:55:47.747Z,5.56
2023-01-15T14:58:26.835Z,5.58
2023-01-15T15:00:55.774Z,5.46
2023-01-15T15:03:34.583Z,5.61
2023-01-15T15:06:01.697Z,5.44
2023-01-15T15:08:30.880Z,5.38
2023-01-15T15:10:58.437Z,5.34
2023-01-15T15:13:40.853Z,5.36
2023-01-15T15:16:17.758Z,5.23
2023-01-15T15:18:48.228Z,5.09
2023-01-15T15:21:24.961Z,5.03
2023-01-15T15:24:03.292Z,5.06
2023-01-15T15:26:31.287Z,4.99
2023-01-15T15:28:57.729Z,4.97
2023-01-15T15:31:26.447Z,4.91
2023-01-15T15:33:54.878Z,4.94
2023-01-15T15:36:21.784Z,4.82
2023-01-15T15:39:04.843Z,4.80
2023-01-15T15:41:51.627Z,4.71
2023-01-15T15:44:56.747Z,4.73
2023-01-15T15:47:43.496Z,4.67
2023-01-15T15:50:23.774Z,4.66
2023-01-15T15:52:50.804Z,4.48
2023-01-15T15:55:18.674Z,4.45
2023-01-15T15:57:51.897Z,4.48
2023-01-15T16:00:30.376Z,4.43
2023-01-15T16:02:57.207Z,4.44
2023-01-15T16:05:25.617Z,4.45
2023-01-15T16:07:52.958Z,4.43
2023-01-15T16:10:30.734Z,4.45
2023-01-15T16:12:58.952Z,4.33
2023-01-15T16:15:33.323Z,4.15
2023-01-15T16:18:01.489Z,4.17
2023-01-15T16:20:28.176Z,4.22
2023-01-15T16:23:05.311Z,4.19
2023-01-15T16:25:37.378Z,4.11
2023-01-15T16:28:04.241Z,4.13
2023-01-15T16:30:35.655Z,4.13
2023-01-15T16:33:05.188Z,4.17
2023-01-15T16:35:33.738Z,4.15
2023-01-15T16:38:01.477Z,4.19
2023-01-15T16:40:29.968Z,4.13
2023-01-15T16:43:11.432Z,4.25
2023-01-15T16:45:42.772Z,4.26
2023-01-15T16:48:24.952Z,4.12
2023-01-15T16:50:52.091Z,4.17
2023-01-15T16:53:50.844Z,4.24
2023-01-15T16:56:25.294Z,4.24
2023-01-15T16:58:51.714Z,4.28
2023-01-15T17:01:39.157Z,4.34
2023-01-15T17:04:16.829Z,4.24
2023-01-15T17:06:43.411Z,4.21
2023-01-15T17:09:14.012Z,4.19
2023-01-15T17:11:40.883Z,4.17
2023-01-15T17:14:29.705Z,4.14
2023-01-15T17:17:15.657Z,4.22
2023-01-15T17:19:43.030Z,4.14
2023-01-15T17:22:16.974Z,4.22
2023-01-15T17:24:47.519Z,4.06
2023-01-15T17:27:14.005Z,4.23
2023-01-15T17:29:40.532Z,4.19
2023-01-15T17:32:12.315Z,4.21
2023-01-15T17:34:38.759Z,4.25
2023-01-15T17:37:05.290Z,4.24
2023-01-15T17:39:31.741Z,4.22
2023-01-15T17:41:58.598Z,4.32
2023-01-15T17:44:25.055Z,4.35
2023-01-15T17:46:51.506Z,4.34
2023-01-15T17:49:18.020Z,4.21
2023-01-15T17:51:44.507Z,4.29
2023-01-15T17:54:10.990Z,4.26
2023-01-15T17:56:55.771Z,4.32
2023-01-15T17:59:40.770Z,4.38
2023-01-15T18:02:31.302Z,4.39
2023-01-15T18:05:16.178Z,4.29
2023-01-15T18:07:42.938Z,4.27
2023-01-15T18:10:10.683Z,4.37
2023-01-15T18:12:37.204Z,4.40
2023-01-15T18:15:03.818Z,4.35
2023-01-15T18:17:31.822Z,4.31
2023-01-15T18:19:58.396Z,4.43
2023-01-15T18:22:24.847Z,4.27
2023-01-15T18:24:51.397Z,4.34
2023-01-15T18:27:17.887Z,4.35
2023-01-15T18:29:44.455Z,4.34
2023-01-15T18:32:11.037Z,4.38
2023-01-15T18:34:37.836Z,4.30
2023-01-15T18:37:04.386Z,4.38
2023-01-15T18:39:30.934Z,4.31
2023-01-15T18:41:57.402Z,4.37
2023-01-15T18:44:43.029Z,4.35
2023-01-15T18:47:13.814Z,4.44
2023-01-15T18:49:41.152Z,4.60
2023-01-15T18:52:27.050Z,4.47
2023-01-15T18:54:54.654Z,4.43
2023-01-15T18:57:21.982Z,4.52
2023-01-15T18:59:49.026Z,4.46
2023-01-15T19:02:19.263Z,4.46
2023-01-15T19:04:46.934Z,4.55
2023-01-15T19:07:13.766Z,4.51
2023-01-15T19:09:40.292Z,4.34
2023-01-15T19:12:07.381Z,4.56
2023-01-15T19:14:52.720Z,4.56
2023-01-15T19:17:39.671Z,4.56
2023-01-15T19:20:07.096Z,4.62
2023-01-15T19:22:52.074Z,4.50
2023-01-15T19:25:20.356Z,4.48
2023-01-15T19:27:48.281Z,4.47
2023-01-15T19:30:14.806Z,4.59
2023-01-15T19:32:41.442Z,4.47
2023-01-15T19:35:08.136Z,4.62
2023-01-15T19:37:39.731Z,4.53
2023-01-15T19:40:07.363Z,4.50
2023-01-15T19:42:52.531Z,4.53
2023-01-15T19:45:37.791Z,4.42
2023-01-15T19:48:23.081Z,4.43
2023-01-15T19:50:53.786Z,4.50
2023-01-15T19:53:20.356Z,4.57
2023-01-15T19:55:47.131Z,4.49
2023-01-15T19:58:14.150Z,4.45
2023-01-15T20:00:42.193Z,4.37
2023-01-15T20:03:10.481Z,4.36
2023-01-15T20:05:37.831Z,4.40
2023-01-15T20:08:04.503Z,4.38
2023-01-15T20:10:36.865Z,4.46
2023-01-15T20:13:21.753Z,4.38
2023-01-15T20:15:48.293Z,4.44
2023-01-15T20:18:14.907Z,4.35
2023-01-15T20:20:41.540Z,4.30
2023-01-15T20:23:08.044Z,4.29
2023-01-15T20:25:35.175Z,4.17
2023-01-15T20:28:01.652Z,4.18
2023-01-15T20:30:28.805Z,4.23
2023-01-15T20:32:56.512Z,4.18
2023-01-15T20:35:31.496Z,4.24
2023-01-15T20:37:58.321Z,4.30
2023-01-15T20:40:25.694Z,4.26
2023-01-15T20:43:11.949Z,4.20
2023-01-15T20:45:38.781Z,4.25
2023-01-15T20:48:14.130Z,4.22
2023-01-15T20:51:02.704Z,4.22
2023-01-15T20:53:30.587Z,4.20
2023-01-15T20:55:57.826Z,4.22
2023-01-15T20:58:24.814Z,4.25
2023-01-15T21:00:51.497Z,4.32
2023-01-15T21:03:18.192Z,4.33
2023-01-15T21:05:45.190Z,4.31
2023-01-15T21:08:11.807Z,4.34
2023-01-15T21:10:38.907Z,4.26
2023-01-15T21:13:05.442Z,4.28
2023-01-15T21:15:31.962Z,4.40
2023-01-15T21:17:58.480Z,4.32
2023-01-15T21:20:25.067Z,4.44
2023-01-15T21:22:51.572Z,4.38
2023-01-15T21:25:18.045Z,4.35
2023-01-15T21:27:44.530Z,4.22
2023-01-15T21:30:11.329Z,4.33
2023-01-15T21:32:37.924Z,4.33
2023-01-15T21:35:04.521Z,4.32
2023-01-15T21:37:31.127Z,4.38
2023-01-15T21:39:57.601Z,4.46
2023-01-15T21:42:42.913Z,4.37
2023-01-15T21:45:11.022Z,4.33
2023-01-15T21:47:37.771Z,4.34
2023-01-15T21:50:05.499Z,4.31
2023-01-15T21:52:33.670Z,4.34
2023-01-15T21:55:00.481Z,4.25
2023-01-15T21:57:28.529Z,4.25
2023-01-15T21:59:55.113Z,4.27
2023-01-15T22:02:23.373Z,4.26
2023-01-15T22:04:50.027Z,4.20
2023-01-15T22:07:17.530Z,4.23
2023-01-15T22:09:44.103Z,4.19
2023-01-15T22:12:11.683Z,4.16
2023-01-15T22:14:38.229Z,4.23
2023-01-15T22:17:04.873Z,4.10
2023-01-15T22:19:32.552Z,4.07
2023-01-15T22:22:00.282Z,4.08
2023-01-15T22:24:28.027Z,4.13
2023-01-15T22:26:54.820Z,4.14
2023-01-15T22:29:31.713Z,4.08
2023-01-15T22:31:58.646Z,4.05
2023-01-15T22:34:26.585Z,3.96
2023-01-15T22:36:53.591Z,3.88
2023-01-15T22:39:20.809Z,3.91
2023-01-15T22:42:05.944Z,3.82
2023-01-15T22:44:32.687Z,3.72
2023-01-15T22:46:59.238Z,3.76
2023-01-15T22:49:25.716Z,3.77
2023-01-15T22:51:52.247Z,3.73
2023-01-15T22:54:19.284Z,3.80
2023-01-15T22:56:46.352Z,3.65
2023-01-15T22:59:13.745Z,3.60
2023-01-15T23:01:40.725Z,3.75
2023-01-15T23:04:15.170Z,3.80
2023-01-15T23:06:41.705Z,3.80
2023-01-15T23:09:10.537Z,3.87
2023-01-15T23:11:38.135Z,3.85
2023-01-15T23:14:05.850Z,3.76
2023-01-15T23:16:32.372Z,3.92
2023-01-15T23:18:58.943Z,3.91
2023-01-15T23:21:26.256Z,3.84
2023-01-15T23:23:53.557Z,3.84
2023-01-15T23:26:20.160Z,3.89
2023-01-15T23:28:49.023Z,3.98
2023-01-15T23:31:15.565Z,3.98
2023-01-15T23:33:42.241Z,4.02
2023-01-15T23:36:09.899Z,4.15
2023-01-15T23:38:36.580Z,4.16
2023-01-15T23:41:09.197Z,4.10
2023-01-15T23:43:54.244Z,4.11
2023-01-15T23:46:41.029Z,4.05
2023-01-15T23:49:09.017Z,4.08
2023-01-15T23:51:35.883Z,4.05
2023-01-15T23:54:03.859Z,4.07
2023-01-15T23:56:31.347Z,4.04
2023-01-15T23:58:58.381Z,4.06
